createdAt,value
2019-03-27T00:01:20.974Z,73.840332
2019-03-27T00:03:34.980Z,74.047852
2019-03-27T00:05:49.218Z,73.535156
2019-03-27T00:08:04.157Z,73.840332
2019-03-27T00:10:18.964Z,73.944092
2019-03-27T00:12:42.052Z,74.047852
2019-03-27T00:14:56.757Z,74.047852
2019-03-27T00:17:11.735Z,74.047852
2019-03-27T00:19:26.910Z,74.395752
2019-03-27T00:21:40.941Z,74.914551
2019-03-27T00:23:55.005Z,75.115967
2019-03-27T00:26:10.870Z,75.323486
2019-03-27T00:28:25.719Z,75.531006
2019-03-27T00:30:39.965Z,75.946045
2019-03-27T00:32:54.734Z,76.397705
2019-03-27T00:35:10.617Z,76.605225
2019-03-27T00:37:24.812Z,76.812744
2019-03-27T00:39:40.583Z,76.812744
2019-03-27T00:41:55.730Z,77.01416
2019-03-27T00:44:13.337Z,77.22168
2019-03-27T00:46:28.928Z,77.22168
2019-03-27T00:48:42.910Z,76.812744
2019-03-27T00:50:58.069Z,76.568604
2019-03-27T00:53:12.092Z,75.946045
2019-03-27T00:55:26.865Z,75.634766
2019-03-27T00:57:41.746Z,75.396729
2019-03-27T00:59:56.681Z,74.87793
2019-03-27T01:02:10.680Z,75.115967
2019-03-27T01:04:24.816Z,75.634766
2019-03-27T01:06:39.369Z,76.049805
2019-03-27T01:09:01.779Z,76.293945
2019-03-27T01:11:16.427Z,76.672363
2019-03-27T01:13:31.196Z,75.531006
2019-03-27T01:15:44.385Z,75.189209
2019-03-27T01:17:58.601Z,74.151611
2019-03-27T01:20:12.587Z,74.432373
2019-03-27T01:22:28.016Z,74.224854
2019-03-27T01:24:50.865Z,74.432373
2019-03-27T01:27:06.405Z,74.87793
2019-03-27T01:29:27.921Z,74.981689
2019-03-27T01:31:42.476Z,74.87793
2019-03-27T01:33:57.404Z,75.634766
2019-03-27T01:36:12.986Z,76.361084
2019-03-27T01:38:29.592Z,76.568604
2019-03-27T01:40:44.283Z,75.738525
2019-03-27T01:42:58.260Z,75.604248
2019-03-27T01:45:12.244Z,74.981689
2019-03-27T01:47:26.292Z,74.981689
2019-03-27T01:49:41.703Z,74.981689
2019-03-27T01:51:55.762Z,75.292969
2019-03-27T01:54:10.527Z,75.292969
2019-03-27T01:56:24.523Z,73.498535
2019-03-27T01:58:38.568Z,74.462891
2019-03-27T02:00:52.054Z,75.085449
2019-03-27T02:03:06.126Z,75.909424
2019-03-27T02:05:19.098Z,75.842285
2019-03-27T02:07:43.041Z,75.189209
2019-03-27T02:09:57.338Z,74.67041
2019-03-27T02:12:12.187Z,73.742676
2019-03-27T02:14:34.438Z,72.808838
2019-03-27T02:16:50.066Z,73.638916
2019-03-27T02:19:04.649Z,74.67041
2019-03-27T02:21:22.446Z,74.188232
2019-03-27T02:23:48.740Z,74.084473
2019-03-27T02:26:12.653Z,74.914551
2019-03-27T02:28:27.465Z,75.085449
2019-03-27T02:30:40.479Z,74.67041
2019-03-27T02:32:56.098Z,73.840332
2019-03-27T02:35:09.186Z,74.255371
2019-03-27T02:37:23.386Z,74.359131
2019-03-27T02:39:37.378Z,74.67041
2019-03-27T02:41:53.098Z,74.359131
2019-03-27T02:44:09.732Z,74.77417
2019-03-27T02:46:25.463Z,73.944092
2019-03-27T02:48:36.701Z,73.742676
2019-03-27T02:50:50.692Z,73.223877
2019-03-27T02:53:06.171Z,73.535156
2019-03-27T02:55:20.119Z,74.188232
2019-03-27T02:57:35.750Z,75.396729
2019-03-27T02:59:50.268Z,75.915527
2019-03-27T03:02:04.382Z,76.361084
2019-03-27T03:04:18.381Z,77.020264
2019-03-27T03:06:32.446Z,77.886963
2019-03-27T03:08:47.606Z,78.094482
2019-03-27T03:11:03.734Z,78.198242
2019-03-27T03:13:19.213Z,77.886963
2019-03-27T03:15:32.285Z,77.642822
2019-03-27T03:17:46.511Z,76.672363
2019-03-27T03:20:00.592Z,75.531006
2019-03-27T03:22:15.537Z,74.603271
2019-03-27T03:24:29.554Z,74.810791
2019-03-27T03:26:43.577Z,74.11499
2019-03-27T03:29:07.278Z,74.945068
2019-03-27T03:31:21.869Z,75.292969
2019-03-27T03:33:43.759Z,75.848389
2019-03-27T03:36:09.749Z,77.923584
2019-03-27T03:38:25.202Z,77.020264
2019-03-27T03:40:40.378Z,76.501465
2019-03-27T03:42:54.319Z,77.020264
2019-03-27T03:45:08.353Z,77.746582
2019-03-27T03:47:30.639Z,77.331543
2019-03-27T03:49:44.620Z,77.227783
2019-03-27T03:51:58.481Z,76.812744
2019-03-27T03:54:12.294Z,77.435303
2019-03-27T03:56:26.155Z,77.020264
2019-03-27T03:58:40.099Z,76.501465
2019-03-27T04:00:53.787Z,76.708984
2019-03-27T04:03:07.636Z,76.812744
2019-03-27T04:05:21.441Z,76.367188
2019-03-27T04:07:36.296Z,76.123047
2019-03-27T04:09:50.205Z,75.500488
2019-03-27T04:12:04.036Z,73.803711
2019-03-27T04:14:17.829Z,73.840332
2019-03-27T04:16:31.636Z,74.047852
2019-03-27T04:18:45.461Z,74.914551
2019-03-27T04:20:59.279Z,75.22583
2019-03-27T04:23:13.087Z,75.360107
2019-03-27T04:25:27.000Z,75.671387
2019-03-27T04:27:41.910Z,77.886963
2019-03-27T04:29:56.758Z,78.546143
2019-03-27T04:32:10.573Z,79.6875
2019-03-27T04:34:24.369Z,80.664062
2019-03-27T04:36:38.185Z,80.834961
2019-03-27T04:38:51.984Z,80.731201
2019-03-27T04:41:05.805Z,81.317139
2019-03-27T04:43:19.768Z,81.420898
2019-03-27T04:45:33.500Z,80.657959
2019-03-27T04:47:47.351Z,79.272461
2019-03-27T04:50:01.179Z,78.442383
2019-03-27T04:52:15.116Z,77.679443
2019-03-27T04:54:29.080Z,78.027344
2019-03-27T04:56:43.036Z,78.857422
2019-03-27T04:58:56.945Z,79.6875
2019-03-27T05:01:10.911Z,79.58374
2019-03-27T05:03:24.844Z,78.717041
2019-03-27T05:05:38.735Z,78.405762
2019-03-27T05:07:52.692Z,78.613281
2019-03-27T05:10:06.593Z,78.302002
2019-03-27T05:12:20.513Z,77.990723
2019-03-27T05:14:34.366Z,76.708984
2019-03-27T05:16:48.343Z,76.086426
2019-03-27T05:19:02.184Z,76.086426
2019-03-27T05:21:16.116Z,76.330566
2019-03-27T05:23:30.040Z,76.293945
2019-03-27T05:25:43.983Z,75.982666
2019-03-27T05:27:57.883Z,75.775146
2019-03-27T05:30:11.815Z,75.256348
2019-03-27T05:32:25.815Z,74.841309
2019-03-27T05:34:39.657Z,74.633789
2019-03-27T05:36:53.560Z,74.77417
2019-03-27T05:39:07.928Z,75.915527
2019-03-27T05:41:21.881Z,77.197266
2019-03-27T05:43:35.871Z,78.369141
2019-03-27T05:45:49.747Z,78.961182
2019-03-27T05:48:03.668Z,78.131104
2019-03-27T05:50:17.553Z,78.094482
2019-03-27T05:52:31.388Z,77.056885
2019-03-27T05:54:45.158Z,75.878906
2019-03-27T05:56:58.950Z,75.671387
2019-03-27T05:59:12.798Z,76.501465
2019-03-27T06:01:26.695Z,76.812744
2019-03-27T06:03:40.615Z,75.842285
2019-03-27T06:05:54.615Z,75.427246
2019-03-27T06:08:08.510Z,75.878906
2019-03-27T06:10:22.339Z,77.020264
2019-03-27T06:12:36.252Z,77.227783
2019-03-27T06:14:50.154Z,76.086426
2019-03-27T06:17:04.111Z,75.738525
2019-03-27T06:19:17.951Z,76.672363
2019-03-27T06:21:31.923Z,76.879883
2019-03-27T06:23:45.818Z,77.294922
2019-03-27T06:25:59.816Z,77.813721
2019-03-27T06:28:13.742Z,77.709961
2019-03-27T06:30:27.710Z,77.7771
2019-03-27T06:32:41.633Z,77.7771
2019-03-27T06:34:55.584Z,77.325439
2019-03-27T06:37:09.446Z,78.155518
2019-03-27T06:39:23.388Z,76.812744
2019-03-27T06:41:37.221Z,76.605225
2019-03-27T06:43:51.117Z,77.01416
2019-03-27T06:46:05.093Z,77.11792
2019-03-27T06:48:25.947Z,77.532959
2019-03-27T06:50:32.836Z,77.392578
2019-03-27T06:52:46.747Z,77.191162
2019-03-27T06:55:00.633Z,76.983643
2019-03-27T06:57:14.540Z,76.983643
2019-03-27T06:59:28.373Z,76.947021
2019-03-27T07:01:42.218Z,77.258301
2019-03-27T07:04:09.479Z,77.496338
2019-03-27T07:06:10.900Z,78.118896
2019-03-27T07:08:24.736Z,77.392578
2019-03-27T07:10:38.652Z,78.118896
2019-03-27T07:12:52.504Z,77.563477
2019-03-27T07:14:08.378Z,77.258301
2019-03-27T07:16:22.320Z,77.838135
2019-03-27T07:18:40.210Z,77.636719
2019-03-27T07:20:49.859Z,77.325439
2019-03-27T07:23:03.591Z,77.325439
2019-03-27T07:25:17.489Z,76.873779
2019-03-27T07:27:31.298Z,76.324463
2019-03-27T07:29:46.112Z,76.287842
2019-03-27T07:32:00.042Z,74.084473
2019-03-27T07:34:13.830Z,73.980713
2019-03-27T07:36:27.786Z,73.876953
2019-03-27T07:38:41.579Z,74.121094
2019-03-27T07:40:55.431Z,75.390625
2019-03-27T07:43:09.360Z,76.116943
2019-03-27T07:45:23.162Z,76.635742
2019-03-27T07:47:37.039Z,76.531982
2019-03-27T07:49:50.858Z,76.080322
2019-03-27T07:52:04.653Z,75.360107
2019-03-27T07:54:18.414Z,76.45874
2019-03-27T07:56:32.218Z,74.77417
2019-03-27T07:58:46.026Z,75.390625
2019-03-27T08:01:00.763Z,74.87793
2019-03-27T08:03:14.532Z,72.747803
2019-03-27T08:05:28.322Z,73.022461
2019-03-27T08:07:42.111Z,72.094727
2019-03-27T08:09:55.948Z,70.959473
2019-03-27T08:12:09.793Z,73.33374
2019-03-27T08:14:24.567Z,72.711182
2019-03-27T08:16:45.548Z,72.229004
2019-03-27T08:19:07.178Z,70.996094
2019-03-27T08:21:13.338Z,72.027588
2019-03-27T08:23:27.135Z,71.820068
2019-03-27T08:25:40.981Z,70.446777
2019-03-27T08:27:54.873Z,70.3125
2019-03-27T08:30:08.690Z,69.146729
2019-03-27T08:32:22.554Z,68.463135
2019-03-27T08:34:36.330Z,66.998291
2019-03-27T08:36:50.136Z,66.247559
2019-03-27T08:39:03.959Z,64.526367
2019-03-27T08:41:17.772Z,66.821289
2019-03-27T08:43:31.605Z,68.670654
2019-03-27T08:45:45.401Z,66.381836
2019-03-27T08:47:59.236Z,67.749023
2019-03-27T08:50:13.071Z,66.101074
2019-03-27T08:52:27.498Z,64.72168
2019-03-27T08:54:41.329Z,66.430664
2019-03-27T08:56:55.293Z,67.700195
2019-03-27T08:59:09.192Z,68.347168
2019-03-27T09:01:23.082Z,67.657471
2019-03-27T09:03:36.877Z,67.419434
2019-03-27T09:05:50.749Z,67.492676
2019-03-27T09:08:04.598Z,66.015625
2019-03-27T09:10:18.357Z,65.887451
2019-03-27T09:12:32.225Z,67.297363
2019-03-27T09:14:46.196Z,63.092041
2019-03-27T09:17:00.212Z,60.595703
2019-03-27T09:19:34.413Z,60.845947
2019-03-27T09:20:37.164Z,60.644531
2019-03-27T09:22:51.588Z,58.587646
2019-03-27T09:25:05.524Z,56.616211
2019-03-27T09:27:19.417Z,55.175781
2019-03-27T09:29:33.304Z,56.359863
2019-03-27T09:31:47.199Z,57.849121
2019-03-27T09:34:01.181Z,59.832764
2019-03-27T09:36:15.093Z,60.168457
2019-03-27T09:38:36.924Z,58.929443
2019-03-27T09:40:51.241Z,59.368896
2019-03-27T09:43:05.126Z,61.151123
2019-03-27T09:45:19.003Z,61.456299
2019-03-27T09:47:40.343Z,61.84082
2019-03-27T09:50:02.531Z,62.768555
2019-03-27T09:52:16.858Z,61.016846
2019-03-27T09:54:30.684Z,59.912109
2019-03-27T09:56:44.614Z,61.016846
2019-03-27T09:59:23.862Z,60.913086
2019-03-27T10:01:38.250Z,61.578369
2019-03-27T10:03:52.337Z,58.850098
2019-03-27T10:06:06.220Z,59.130859
2019-03-27T10:08:20.122Z,56.848145
2019-03-27T10:10:34.057Z,53.845215
2019-03-27T10:12:47.954Z,54.846191
2019-03-27T10:15:01.822Z,52.587891
2019-03-27T10:17:15.733Z,49.945068
2019-03-27T10:19:29.831Z,50.970459
2019-03-27T10:21:43.752Z,54.180908
2019-03-27T10:23:57.627Z,54.406738
2019-03-27T10:26:11.694Z,54.919434
2019-03-27T10:28:25.579Z,55.535889
2019-03-27T10:30:39.456Z,55.126953
2019-03-27T10:32:53.415Z,52.789307
2019-03-27T10:35:07.296Z,55.255127
2019-03-27T10:37:21.176Z,50.836182
2019-03-27T10:39:35.067Z,51.275635
2019-03-27T10:41:48.953Z,51.196289
2019-03-27T10:44:02.822Z,50.98877
2019-03-27T10:46:16.671Z,50.67749
2019-03-27T10:48:30.558Z,50.860596
2019-03-27T10:50:45.474Z,54.022217
2019-03-27T10:52:59.345Z,53.894043
2019-03-27T10:55:13.257Z,53.564453
2019-03-27T10:57:27.135Z,53.540039
2019-03-27T10:59:40.985Z,50.311279
2019-03-27T11:01:54.882Z,50.311279
2019-03-27T11:04:08.767Z,52.972412
2019-03-27T11:06:22.622Z,53.796387
2019-03-27T11:08:36.493Z,54.229736
2019-03-27T11:10:50.398Z,52.203369
2019-03-27T11:13:04.265Z,50.897217
2019-03-27T11:15:18.123Z,54.205322
2019-03-27T11:17:32.064Z,54.180908
2019-03-27T11:19:45.935Z,53.741455
2019-03-27T11:21:59.810Z,52.514648
2019-03-27T11:24:13.740Z,51.507568
2019-03-27T11:26:27.627Z,50.915527
2019-03-27T11:28:41.491Z,53.051758
2019-03-27T11:30:55.463Z,49.945068
2019-03-27T11:33:09.370Z,52.79541
2019-03-27T11:35:23.210Z,47.644043
2019-03-27T11:37:37.078Z,48.364258
2019-03-27T11:39:50.931Z,49.694824
2019-03-27T11:42:04.805Z,48.156738
2019-03-27T11:44:18.656Z,50.006104
2019-03-27T11:46:32.553Z,50.769043
2019-03-27T11:48:46.350Z,50.561523
2019-03-27T11:51:00.207Z,51.483154
2019-03-27T11:53:21.980Z,52.923584
2019-03-27T11:55:43.550Z,53.204346
2019-03-27T11:58:05.308Z,53.509521
2019-03-27T11:59:14.751Z,52.770996
2019-03-27T12:01:47.539Z,54.510498
2019-03-27T12:06:52.236Z,52.233887
2019-03-27T12:09:08.500Z,51.617432
2019-03-27T13:00:19.231Z,52.081299
2019-03-27T13:02:34.689Z,48.071289
2019-03-27T13:04:48.583Z,49.420166
2019-03-27T13:07:02.418Z,48.706055
2019-03-27T13:15:05.097Z,48.522949
2019-03-27T13:17:18.922Z,49.163818
2019-03-27T13:19:33.815Z,48.956299
2019-03-27T13:21:48.595Z,50.799561
2019-03-27T13:24:02.591Z,48.339844
2019-03-27T13:26:16.509Z,50.390625
2019-03-27T13:28:30.462Z,51.312256
2019-03-27T13:30:45.311Z,51.312256
2019-03-27T13:32:59.411Z,49.87793
2019-03-27T13:35:13.844Z,51.208496
2019-03-27T13:37:27.878Z,51.416016
2019-03-27T13:39:41.773Z,51.849365
2019-03-27T13:41:55.549Z,53.308105
2019-03-27T13:44:09.581Z,52.050781
2019-03-27T13:46:23.347Z,52.667236
2019-03-27T13:48:37.170Z,54.205322
2019-03-27T13:50:50.940Z,52.972412
2019-03-27T13:53:04.715Z,53.771973
2019-03-27T13:55:19.523Z,51.208496
2019-03-27T13:57:33.318Z,52.233887
2019-03-27T13:59:47.088Z,51.391602
2019-03-27T14:02:00.887Z,51.367188
2019-03-27T14:04:15.677Z,49.420166
2019-03-27T14:06:29.508Z,52.46582
2019-03-27T14:08:44.391Z,50.726318
2019-03-27T14:10:58.244Z,48.681641
2019-03-27T14:13:12.121Z,51.647949
2019-03-27T14:15:25.978Z,50.830078
2019-03-27T14:17:39.795Z,49.499512
2019-03-27T14:19:53.611Z,48.602295
2019-03-27T14:22:07.551Z,49.035645
2019-03-27T14:24:21.409Z,50.775146
2019-03-27T14:26:44.723Z,51.593018
2019-03-27T14:28:49.095Z,50.57373
2019-03-27T14:31:03.034Z,51.721191
2019-03-27T14:33:17.009Z,52.850342
2019-03-27T14:35:30.878Z,52.337646
2019-03-27T14:37:44.724Z,52.642822
2019-03-27T14:39:58.695Z,52.441406
2019-03-27T14:42:13.567Z,51.00708
2019-03-27T14:44:27.451Z,52.947998
2019-03-27T14:46:41.444Z,51.312256
2019-03-27T14:48:55.432Z,51.513672
2019-03-27T14:51:09.270Z,51.104736
2019-03-27T14:53:23.108Z,52.441406
2019-03-27T14:55:37.258Z,52.026367
2019-03-27T14:57:51.096Z,51.513672
2019-03-27T15:00:04.924Z,52.923584
2019-03-27T15:02:21.090Z,50.933838
2019-03-27T15:04:35.687Z,49.682617
2019-03-27T15:06:49.553Z,49.328613
2019-03-27T15:09:03.617Z,48.901367
2019-03-27T15:11:17.425Z,47.796631
2019-03-27T15:13:31.235Z,48.590088
2019-03-27T15:15:45.055Z,48.114014
2019-03-27T15:17:58.846Z,49.847412
2019-03-27T15:20:12.616Z,46.624756
2019-03-27T15:22:26.496Z,49.169922
2019-03-27T15:24:40.269Z,51.025391
2019-03-27T15:26:54.093Z,50.054932
2019-03-27T15:29:07.848Z,49.694824
2019-03-27T15:31:21.676Z,53.442383
2019-03-27T15:33:35.459Z,52.905273
2019-03-27T15:35:49.233Z,50.866699
2019-03-27T15:38:03.111Z,49.749756
2019-03-27T15:40:16.877Z,52.929688
2019-03-27T15:42:30.656Z,57.189941
2019-03-27T15:44:44.432Z,52.398682
2019-03-27T15:46:58.223Z,51.324463
2019-03-27T15:49:12.008Z,50.408936
2019-03-27T15:51:25.844Z,49.462891
2019-03-27T15:53:39.641Z,51.098633
2019-03-27T15:55:53.396Z,47.302246
2019-03-27T15:58:07.207Z,52.832031
2019-03-27T16:00:21.008Z,49.285889
2019-03-27T16:02:34.982Z,54.693604
2019-03-27T16:04:48.737Z,55.633545
2019-03-27T16:07:02.562Z,52.55127
2019-03-27T16:09:16.573Z,51.550293
2019-03-27T16:11:30.360Z,54.205322
2019-03-27T16:13:44.163Z,55.200195
2019-03-27T16:15:57.941Z,50.384521
2019-03-27T16:18:11.723Z,50.482178
2019-03-27T16:20:25.513Z,49.285889
2019-03-27T16:22:49.754Z,48.309326
2019-03-27T16:24:53.979Z,52.008057
2019-03-27T16:27:07.783Z,52.34375
2019-03-27T16:29:21.551Z,49.987793
2019-03-27T16:31:35.291Z,51.831055
2019-03-27T16:33:49.070Z,50.396729
2019-03-27T16:36:02.816Z,49.603271
2019-03-27T16:38:16.589Z,53.387451
2019-03-27T16:40:30.326Z,51.544189
2019-03-27T16:42:44.106Z,51.568604
2019-03-27T16:44:57.847Z,54.02832
2019-03-27T16:47:11.593Z,53.924561
2019-03-27T16:49:25.337Z,51.470947
2019-03-27T16:51:39.073Z,54.13208
2019-03-27T16:53:52.899Z,55.358887
2019-03-27T16:56:06.730Z,52.618408
2019-03-27T16:58:21.131Z,53.027344
2019-03-27T17:00:36.287Z,52.026367
2019-03-27T17:02:50.166Z,52.947998
2019-03-27T17:05:04.394Z,54.589844
2019-03-27T17:07:19.033Z,53.869629
2019-03-27T17:09:32.789Z,55.718994
2019-03-27T17:11:46.568Z,53.869629
2019-03-27T17:14:00.349Z,53.259277
2019-03-27T17:16:14.127Z,53.771973
2019-03-27T17:18:28.185Z,56.12793
2019-03-27T17:20:41.693Z,54.382324
2019-03-27T17:22:55.443Z,56.225586
2019-03-27T17:25:10.205Z,56.536865
2019-03-27T17:27:23.986Z,53.997803
2019-03-27T17:29:37.819Z,57.69043
2019-03-27T17:31:51.586Z,54.510498
2019-03-27T17:34:05.351Z,57.891846
2019-03-27T17:36:19.100Z,55.462646
2019-03-27T17:38:32.871Z,55.462646
2019-03-27T17:40:46.633Z,56.280518
2019-03-27T17:43:00.380Z,55.59082
2019-03-27T17:45:14.161Z,55.999756
2019-03-27T17:47:27.935Z,56.304932
2019-03-27T17:49:41.694Z,56.408691
2019-03-27T17:51:55.476Z,56.408691
2019-03-27T17:54:19.816Z,57.434082
2019-03-27T17:56:23.911Z,56.616211
2019-03-27T17:58:37.708Z,57.25708
2019-03-27T18:00:51.503Z,57.562256
2019-03-27T18:03:05.291Z,57.4646
2019-03-27T18:05:19.120Z,59.643555
2019-03-27T18:07:32.981Z,58.721924
2019-03-27T18:09:46.838Z,58.306885
2019-03-27T18:12:00.692Z,58.618164
2019-03-27T18:14:14.557Z,59.539795
2019-03-27T18:16:28.438Z,59.362793
2019-03-27T18:18:42.293Z,58.642578
2019-03-27T18:20:56.173Z,59.259033
2019-03-27T18:23:10.010Z,61.523438
2019-03-27T18:25:23.873Z,59.979248
2019-03-27T18:27:37.702Z,59.674072
2019-03-27T18:30:01.498Z,59.362793
2019-03-27T18:32:16.066Z,61.108398
2019-03-27T18:34:30.175Z,59.906006
2019-03-27T18:36:44.177Z,60.314941
2019-03-27T18:38:58.228Z,61.035156
2019-03-27T18:41:12.298Z,60.931396
2019-03-27T18:43:26.356Z,61.859131
2019-03-27T18:45:40.407Z,62.884521
2019-03-27T18:47:54.573Z,63.397217
2019-03-27T18:50:08.520Z,63.83667
2019-03-27T18:52:22.380Z,63.018799
2019-03-27T18:54:36.465Z,63.018799
2019-03-27T18:56:50.444Z,63.427734
2019-03-27T18:59:04.423Z,63.635254
2019-03-27T19:01:18.395Z,64.044189
2019-03-27T19:03:32.267Z,61.987305
2019-03-27T19:05:46.178Z,63.427734
2019-03-27T19:08:00.042Z,64.147949
2019-03-27T19:10:14.035Z,64.074707
2019-03-27T19:12:28.215Z,64.587402
2019-03-27T19:14:43.095Z,63.867188
2019-03-27T19:16:56.995Z,64.178467
2019-03-27T19:19:11.251Z,64.385986
2019-03-27T19:21:25.371Z,65.002441
2019-03-27T19:23:39.249Z,64.691162
2019-03-27T19:25:53.274Z,64.61792
2019-03-27T19:28:07.368Z,64.61792
2019-03-27T19:30:21.195Z,65.234375
2019-03-27T19:32:35.240Z,65.95459
2019-03-27T19:34:51.073Z,65.545654
2019-03-27T19:37:03.169Z,65.856934
2019-03-27T19:39:17.112Z,66.265869
2019-03-27T19:41:31.003Z,66.986084
2019-03-27T19:43:45.880Z,66.986084
2019-03-27T19:45:59.803Z,67.297363
2019-03-27T19:48:13.659Z,67.498779
2019-03-27T19:50:27.683Z,67.224121
2019-03-27T19:52:41.560Z,68.353271
2019-03-27T19:54:55.416Z,68.457031
2019-03-27T19:57:09.333Z,67.736816
2019-03-27T19:59:23.313Z,68.560791
2019-03-27T20:01:37.126Z,68.218994
2019-03-27T20:03:51.027Z,68.939209
2019-03-27T20:06:04.893Z,68.835449
2019-03-27T20:08:18.729Z,68.939209
2019-03-27T20:10:32.535Z,68.218994
2019-03-27T20:12:46.506Z,69.354248
2019-03-27T20:15:10.992Z,66.265869
2019-03-27T20:17:15.416Z,67.297363
2019-03-27T20:19:29.292Z,67.602539
2019-03-27T20:21:43.283Z,68.218994
2019-03-27T20:23:57.083Z,68.634033
2019-03-27T20:26:10.840Z,68.97583
2019-03-27T20:28:24.624Z,68.768311
2019-03-27T20:30:38.434Z,68.560791
2019-03-27T20:32:52.206Z,67.431641
2019-03-27T20:35:05.964Z,68.322754
2019-03-27T20:37:19.749Z,68.457031
2019-03-27T20:39:33.487Z,68.218994
2019-03-27T20:41:48.241Z,68.426514
2019-03-27T20:44:02.050Z,68.530273
2019-03-27T20:46:24.685Z,67.736816
2019-03-27T20:48:30.540Z,67.431641
2019-03-27T20:50:45.298Z,68.151855
2019-03-27T20:52:59.096Z,68.353271
2019-03-27T20:55:12.919Z,68.902588
2019-03-27T20:57:27.692Z,69.006348
2019-03-27T20:59:41.465Z,68.798828
2019-03-27T21:01:55.238Z,68.902588
2019-03-27T21:04:09.047Z,69.519043
2019-03-27T21:06:22.810Z,69.311523
2019-03-27T21:08:36.609Z,69.415283
2019-03-27T21:10:50.454Z,69.415283
2019-03-27T21:13:04.223Z,68.725586
2019-03-27T21:15:17.993Z,69.036865
2019-03-27T21:17:31.768Z,69.65332
2019-03-27T21:19:45.555Z,69.891357
2019-03-27T21:22:00.284Z,70.513916
2019-03-27T21:24:14.047Z,70.410156
2019-03-27T21:26:27.839Z,71.337891
2019-03-27T21:28:41.603Z,71.44165
2019-03-27T21:30:55.399Z,71.643066
2019-03-27T21:33:09.137Z,70.922852
2019-03-27T21:35:22.923Z,71.54541
2019-03-27T21:37:36.712Z,71.026611
2019-03-27T21:39:50.693Z,71.44165
2019-03-27T21:42:04.406Z,71.54541
2019-03-27T21:44:18.259Z,71.44165
2019-03-27T21:46:32.262Z,71.337891
2019-03-27T21:48:46.047Z,71.099854
2019-03-27T21:50:59.841Z,70.892334
2019-03-27T21:53:13.762Z,71.30127
2019-03-27T21:55:27.532Z,71.820068
2019-03-27T21:57:42.293Z,71.337891
2019-03-27T21:59:56.331Z,71.850586
2019-03-27T22:02:10.063Z,71.44165
2019-03-27T22:04:23.780Z,71.954346
2019-03-27T22:06:37.903Z,72.161865
2019-03-27T22:08:51.659Z,71.337891
2019-03-27T22:11:05.462Z,70.819092
2019-03-27T22:13:20.489Z,70.581055
2019-03-27T22:15:34.257Z,71.203613
2019-03-27T22:17:48.043Z,70.861816
2019-03-27T22:20:01.813Z,69.934082
2019-03-27T22:22:15.556Z,68.695068
2019-03-27T22:24:30.319Z,69.65332
2019-03-27T22:26:44.163Z,70.068359
2019-03-27T22:28:57.837Z,70.715332
2019-03-27T22:31:11.692Z,71.54541
2019-03-27T22:33:25.371Z,71.783447
2019-03-27T22:35:39.140Z,72.094727
2019-03-27T22:37:52.907Z,71.990967
2019-03-27T22:40:06.655Z,72.192383
2019-03-27T22:42:20.454Z,72.094727
2019-03-27T22:44:34.213Z,71.990967
2019-03-27T22:46:47.997Z,71.575928
2019-03-27T22:49:01.759Z,71.130371
2019-03-27T22:51:15.555Z,70.715332
2019-03-27T22:53:29.312Z,71.337891
2019-03-27T22:55:49.350Z,71.405029
2019-03-27T22:57:56.831Z,71.716309
2019-03-27T23:00:10.584Z,71.234131
2019-03-27T23:02:24.355Z,71.850586
2019-03-27T23:04:38.153Z,71.337891
2019-03-27T23:06:51.919Z,72.265625
2019-03-27T23:09:05.667Z,72.161865
2019-03-27T23:11:19.457Z,72.161865
2019-03-27T23:13:33.212Z,71.643066
2019-03-27T23:15:46.977Z,71.746826
2019-03-27T23:18:00.777Z,71.954346
2019-03-27T23:20:14.529Z,72.473145
2019-03-27T23:22:28.297Z,71.44165
2019-03-27T23:24:42.082Z,72.332764
2019-03-27T23:26:56.848Z,71.820068
2019-03-27T23:29:10.608Z,71.203613
2019-03-27T23:31:24.430Z,70.996094
2019-03-27T23:33:38.209Z,72.473145
2019-03-27T23:35:51.964Z,71.54541
2019-03-27T23:38:05.746Z,71.54541
2019-03-27T23:40:19.502Z,71.508789
2019-03-27T23:42:34.105Z,70.996094
2019-03-27T23:44:47.062Z,70.581055
2019-03-27T23:47:00.825Z,70.373535
2019-03-27T23:49:14.588Z,69.9646
2019-03-27T23:51:28.353Z,69.110107
2019-03-27T23:53:42.126Z,70.275879
2019-03-27T23:55:55.873Z,70.684814
2019-03-27T23:58:10.637Z,71.337891
